createdAt,value
2022-11-16T00:01:03.002Z,92.90
2022-11-16T00:04:07.372Z,92.90
2022-11-16T00:07:10.603Z,93.10
2022-11-16T00:10:13.903Z,93.40
2022-11-16T00:13:16.802Z,93.50
2022-11-16T00:16:20.980Z,93.80
2022-11-16T00:19:26.300Z,94.10
2022-11-16T00:22:29.310Z,94.20
2022-11-16T00:25:32.229Z,94.30
2022-11-16T00:28:35.717Z,94.40
2022-11-16T00:31:38.807Z,94.20
2022-11-16T00:34:43.034Z,94.30
2022-11-16T00:37:46.080Z,94.20
2022-11-16T00:40:48.983Z,94.00
2022-11-16T00:43:52.116Z,94.10
2022-11-16T00:46:55.016Z,94.10
2022-11-16T00:49:59.376Z,93.70
2022-11-16T00:53:02.280Z,93.40
2022-11-16T00:56:05.622Z,93.50
2022-11-16T00:59:08.715Z,93.70
2022-11-16T01:02:11.607Z,93.90
2022-11-16T01:05:15.840Z,94.30
2022-11-16T01:08:18.701Z,93.90
2022-11-16T01:11:39.188Z,94.00
2022-11-16T01:14:45.342Z,94.30
2022-11-16T01:17:48.490Z,94.60
2022-11-16T01:20:54.294Z,94.50
2022-11-16T01:23:58.058Z,94.60
2022-11-16T01:27:00.964Z,94.50
2022-11-16T01:30:04.031Z,94.60
2022-11-16T01:33:06.986Z,94.20
2022-11-16T01:36:14.290Z,94.30
2022-11-16T01:39:17.647Z,94.30
2022-11-16T01:42:21.765Z,94.10
2022-11-16T01:45:35.075Z,94.10
2022-11-16T01:48:38.584Z,94.10
2022-11-16T01:51:48.307Z,94.20
2022-11-16T01:54:54.049Z,94.30
2022-11-16T01:57:57.854Z,94.00
2022-11-16T02:01:01.002Z,94.00
2022-11-16T02:04:03.991Z,94.10
2022-11-16T02:07:18.601Z,93.90
2022-11-16T02:10:35.046Z,93.70
2022-11-16T02:13:47.143Z,93.80
2022-11-16T02:16:59.595Z,94.00
2022-11-16T02:20:27.454Z,93.90
2022-11-16T02:24:08.311Z,94.20
2022-11-16T02:27:43.604Z,94.20
2022-11-16T02:30:51.899Z,94.20
2022-11-16T02:33:57.980Z,94.00
2022-11-16T02:37:03.064Z,94.10
2022-11-16T02:40:10.287Z,94.10
2022-11-16T02:43:20.458Z,94.20
2022-11-16T02:46:29.920Z,94.00
2022-11-16T02:49:37.336Z,94.10
2022-11-16T02:52:40.293Z,93.90
2022-11-16T02:55:43.139Z,94.10
2022-11-16T02:58:47.656Z,94.20
2022-11-16T03:02:05.671Z,94.40
2022-11-16T03:05:15.151Z,94.10
2022-11-16T03:08:23.950Z,94.40
2022-11-16T03:11:44.290Z,94.10
2022-11-16T03:14:52.398Z,94.40
2022-11-16T03:17:57.680Z,94.40
2022-11-16T03:21:11.199Z,94.40
2022-11-16T03:24:14.659Z,94.30
2022-11-16T03:27:26.143Z,94.70
2022-11-16T03:30:32.959Z,94.60
2022-11-16T03:33:40.834Z,94.40
2022-11-16T03:36:47.411Z,94.20
2022-11-16T03:39:53.098Z,94.20
2022-11-16T03:42:56.903Z,94.70
2022-11-16T03:46:00.139Z,94.70
2022-11-16T03:49:04.411Z,94.70
2022-11-16T03:52:07.314Z,94.80
2022-11-16T03:55:10.568Z,94.90
2022-11-16T03:58:13.451Z,94.90
2022-11-16T04:01:16.431Z,94.90
2022-11-16T04:04:38.775Z,95.10
2022-11-16T04:07:59.156Z,95.10
2022-11-16T04:11:19.606Z,95.00
2022-11-16T04:14:57.011Z,95.00
2022-11-16T04:18:17.774Z,95.00
2022-11-16T04:21:44.072Z,95.20
2022-11-16T04:24:50.759Z,95.30
2022-11-16T04:28:12.588Z,95.20
2022-11-16T04:31:33.034Z,95.50
2022-11-16T04:34:49.822Z,95.60
2022-11-16T04:37:56.942Z,95.70
2022-11-16T04:40:59.824Z,96.00
2022-11-16T04:44:01.998Z,95.80
2022-11-16T04:47:07.607Z,95.90
2022-11-16T04:50:10.788Z,95.90
2022-11-16T04:53:15.811Z,95.60
2022-11-16T04:56:18.688Z,95.60
2022-11-16T04:59:21.581Z,95.60
2022-11-16T05:02:24.497Z,95.50
2022-11-16T05:05:27.360Z,95.80
2022-11-16T05:08:31.843Z,96.00
2022-11-16T05:11:34.891Z,96.10
2022-11-16T05:14:38.203Z,96.60
2022-11-16T05:17:41.070Z,96.50
2022-11-16T05:21:00.916Z,96.40
2022-11-16T05:24:23.098Z,96.40
2022-11-16T05:27:27.361Z,96.50
2022-11-16T05:30:30.628Z,96.50
2022-11-16T05:33:33.489Z,96.50
2022-11-16T05:36:36.399Z,96.60
2022-11-16T05:39:41.429Z,96.80
2022-11-16T05:42:44.293Z,96.70
2022-11-16T05:45:47.173Z,96.60
2022-11-16T05:48:50.051Z,96.90
2022-11-16T05:51:52.999Z,96.80
2022-11-16T05:54:57.207Z,96.50
2022-11-16T05:58:00.100Z,96.80
2022-11-16T06:01:03.059Z,97.00
2022-11-16T06:04:06.134Z,97.60
2022-11-16T06:07:09.069Z,97.80
2022-11-16T06:10:13.491Z,97.70
2022-11-16T06:13:16.358Z,97.90
2022-11-16T06:16:19.268Z,97.80
2022-11-16T06:19:22.207Z,97.90
2022-11-16T06:22:25.131Z,97.90
2022-11-16T06:25:30.792Z,98.00
2022-11-16T06:28:34.517Z,98.00
2022-11-16T06:31:37.630Z,98.10
2022-11-16T06:34:40.492Z,98.10
2022-11-16T06:37:43.489Z,98.10
2022-11-16T06:40:51.258Z,98.30
2022-11-16T06:43:54.117Z,98.50
2022-11-16T06:46:57.010Z,98.50
2022-11-16T06:49:59.857Z,98.60
2022-11-16T06:53:02.747Z,98.60
2022-11-16T06:56:07.583Z,98.60
2022-11-16T06:59:10.437Z,98.80
2022-11-16T07:02:13.600Z,98.90
2022-11-16T07:05:16.680Z,99.10
2022-11-16T07:08:19.559Z,99.00
2022-11-16T07:11:23.847Z,99.00
2022-11-16T07:14:26.731Z,99.20
2022-11-16T07:17:29.575Z,99.30
2022-11-16T07:20:32.843Z,99.50
2022-11-16T07:23:36.134Z,99.60
2022-11-16T07:26:40.374Z,99.80
2022-11-16T07:29:43.227Z,99.80
2022-11-16T07:32:46.112Z,99.80
2022-11-16T07:35:48.968Z,99.70
2022-11-16T07:38:51.876Z,99.80
2022-11-16T07:41:56.126Z,99.90
2022-11-16T07:44:58.998Z,99.90
2022-11-16T07:48:02.273Z,99.90
2022-11-16T07:51:06.839Z,99.90
2022-11-16T07:54:11.827Z,99.90
2022-11-16T07:57:16.096Z,99.90
2022-11-16T08:00:19.496Z,99.90
2022-11-16T08:03:24.833Z,99.90
2022-11-16T08:06:29.778Z,99.90
2022-11-16T08:09:32.662Z,99.90
2022-11-16T08:12:37.131Z,99.90
2022-11-16T08:15:40.024Z,99.90
2022-11-16T08:18:43.798Z,99.90
2022-11-16T08:21:46.745Z,99.90
2022-11-16T08:24:49.678Z,99.90
2022-11-16T08:27:53.950Z,99.90
2022-11-16T08:30:58.328Z,99.90
2022-11-16T08:34:01.579Z,99.90
2022-11-16T08:37:04.484Z,99.90
2022-11-16T08:40:08.312Z,99.90
2022-11-16T08:43:12.638Z,99.90
2022-11-16T08:46:16.172Z,99.90
2022-11-16T08:49:19.041Z,99.90
2022-11-16T08:52:21.964Z,99.90
2022-11-16T08:55:24.924Z,99.90
2022-11-16T08:58:29.161Z,99.90
2022-11-16T09:01:32.862Z,99.90
2022-11-16T09:04:37.191Z,99.90
2022-11-16T09:07:40.932Z,99.90
2022-11-16T09:10:43.924Z,99.90
2022-11-16T09:13:49.608Z,99.90
2022-11-16T09:16:52.500Z,99.90
2022-11-16T09:19:55.448Z,99.90
2022-11-16T09:22:58.315Z,99.90
2022-11-16T09:26:03.358Z,99.90
2022-11-16T09:29:07.854Z,99.90
2022-11-16T09:32:10.759Z,99.90
2022-11-16T09:35:13.999Z,99.90
2022-11-16T09:38:24.167Z,99.90
2022-11-16T09:42:02.407Z,99.90
2022-11-16T09:45:14.734Z,99.90
2022-11-16T09:48:19.340Z,99.90
2022-11-16T09:51:25.149Z,99.90
2022-11-16T09:54:32.629Z,99.90
2022-11-16T09:57:38.205Z,99.90
2022-11-16T10:00:48.441Z,99.90
2022-11-16T10:03:55.164Z,99.90
2022-11-16T10:07:04.039Z,99.90
2022-11-16T10:10:15.507Z,99.90
2022-11-16T10:13:29.336Z,99.90
2022-11-16T10:16:40.063Z,99.90
2022-11-16T10:19:51.378Z,99.90
2022-11-16T10:23:04.106Z,99.90
2022-11-16T10:26:22.311Z,99.90
2022-11-16T10:29:40.228Z,99.90
2022-11-16T10:32:50.633Z,99.90
2022-11-16T10:35:54.220Z,99.90
2022-11-16T10:38:58.380Z,99.90
2022-11-16T10:42:07.661Z,99.90
2022-11-16T10:45:18.426Z,99.90
2022-11-16T10:48:36.983Z,99.90
2022-11-16T10:51:39.976Z,99.90
2022-11-16T10:54:44.605Z,99.90
2022-11-16T10:57:59.126Z,99.90
2022-11-16T11:01:02.023Z,99.90
2022-11-16T11:04:29.461Z,99.90
2022-11-16T11:07:34.224Z,99.90
2022-11-16T11:10:39.743Z,99.90
2022-11-16T11:13:42.625Z,99.90
2022-11-16T11:16:45.520Z,99.90
2022-11-16T11:19:59.436Z,99.90
2022-11-16T11:23:11.951Z,99.90
2022-11-16T11:26:36.888Z,99.90
2022-11-16T11:29:43.165Z,99.90
2022-11-16T11:32:46.123Z,99.90
2022-11-16T11:35:59.685Z,99.90
2022-11-16T11:39:06.258Z,99.90
2022-11-16T11:42:23.019Z,99.90
2022-11-16T11:45:42.562Z,99.90
2022-11-16T11:48:52.632Z,99.90
2022-11-16T11:52:01.611Z,99.90
2022-11-16T11:55:08.050Z,99.90
2022-11-16T11:58:18.495Z,99.90
2022-11-16T12:01:46.884Z,99.90
2022-11-16T12:05:09.951Z,99.90
2022-11-16T12:08:34.122Z,99.90
2022-11-16T12:11:49.558Z,99.90
2022-11-16T12:15:03.347Z,99.90
2022-11-16T12:18:15.970Z,99.90
2022-11-16T12:21:27.548Z,99.90
2022-11-16T12:24:44.513Z,99.90
2022-11-16T12:27:57.105Z,99.90
2022-11-16T12:31:19.273Z,99.90
2022-11-16T12:34:35.357Z,99.90
2022-11-16T12:37:46.788Z,99.90
2022-11-16T12:41:06.799Z,99.90
2022-11-16T12:44:11.776Z,99.90
2022-11-16T12:47:25.366Z,99.90
2022-11-16T12:50:41.792Z,99.90
2022-11-16T12:54:00.420Z,99.90
2022-11-16T12:57:15.154Z,99.90
2022-11-16T13:00:19.995Z,99.90
2022-11-16T13:03:30.397Z,99.90
2022-11-16T13:06:37.411Z,99.90
2022-11-16T13:09:44.697Z,99.80
2022-11-16T13:12:55.863Z,98.80
2022-11-16T13:16:08.526Z,97.80
2022-11-16T13:19:14.548Z,98.60
2022-11-16T13:22:23.198Z,97.70
2022-11-16T13:25:32.511Z,96.80
2022-11-16T13:28:41.158Z,96.80
2022-11-16T13:31:50.334Z,96.60
2022-11-16T13:34:53.811Z,96.60
2022-11-16T13:37:56.749Z,96.20
2022-11-16T13:41:27.845Z,96.10
2022-11-16T13:44:32.476Z,96.10
2022-11-16T13:47:36.636Z,95.00
2022-11-16T13:50:40.946Z,94.60
2022-11-16T13:54:43.996Z,94.90
2022-11-16T13:57:23.960Z,95.50
2022-11-16T14:00:32.081Z,96.00
2022-11-16T14:03:39.301Z,96.20
2022-11-16T14:07:02.082Z,95.60
2022-11-16T14:10:07.832Z,94.90
2022-11-16T14:13:39.046Z,95.30
2022-11-16T14:16:48.976Z,94.90
2022-11-16T14:19:56.531Z,94.90
2022-11-16T14:23:16.142Z,95.70
2022-11-16T14:26:25.331Z,96.30
2022-11-16T14:29:49.086Z,95.80
2022-11-16T14:32:56.103Z,96.60
2022-11-16T14:35:59.984Z,96.80
2022-11-16T14:39:16.864Z,96.50
2022-11-16T14:42:23.493Z,97.00
2022-11-16T14:45:28.826Z,97.30
2022-11-16T14:48:33.532Z,97.30
2022-11-16T14:51:39.260Z,97.40
2022-11-16T14:54:48.916Z,97.30
2022-11-16T14:58:08.004Z,97.40
2022-11-16T15:01:15.719Z,97.50
2022-11-16T15:04:21.961Z,97.10
2022-11-16T15:07:25.746Z,97.20
2022-11-16T15:10:30.169Z,97.30
2022-11-16T15:13:33.441Z,97.40
2022-11-16T15:16:50.238Z,97.30
2022-11-16T15:19:59.337Z,96.80
2022-11-16T15:23:04.200Z,96.90
2022-11-16T15:26:07.348Z,96.70
2022-11-16T15:29:16.505Z,96.90
2022-11-16T15:32:19.622Z,96.80
2022-11-16T15:35:25.493Z,96.20
2022-11-16T15:38:31.153Z,98.90
2022-11-16T15:41:35.144Z,99.20
2022-11-16T15:44:39.224Z,98.80
2022-11-16T15:47:45.387Z,97.90
2022-11-16T15:51:14.568Z,97.70
2022-11-16T15:54:24.701Z,97.40
2022-11-16T15:57:27.656Z,97.20
2022-11-16T16:00:32.354Z,95.90
2022-11-16T16:03:37.422Z,95.70
2022-11-16T16:06:59.139Z,95.10
2022-11-16T16:10:14.193Z,95.20
2022-11-16T16:13:26.834Z,95.30
2022-11-16T16:16:32.392Z,95.10
2022-11-16T16:19:38.363Z,95.00
2022-11-16T16:22:42.581Z,95.30
2022-11-16T16:25:50.239Z,95.50
2022-11-16T16:28:53.681Z,95.70
2022-11-16T16:31:56.963Z,96.10
2022-11-16T16:35:01.199Z,95.90
2022-11-16T16:38:14.240Z,95.70
2022-11-16T16:41:23.975Z,95.80
2022-11-16T16:44:27.528Z,95.80
2022-11-16T16:47:30.407Z,95.50
2022-11-16T16:50:33.302Z,95.70
2022-11-16T16:53:37.523Z,95.50
2022-11-16T16:56:41.016Z,95.70
2022-11-16T16:59:45.162Z,95.70
2022-11-16T17:02:48.229Z,95.70
2022-11-16T17:05:53.255Z,95.60
2022-11-16T17:08:57.964Z,95.60
2022-11-16T17:12:00.859Z,95.70
2022-11-16T17:15:03.777Z,95.40
2022-11-16T17:18:06.769Z,95.00
2022-11-16T17:21:10.562Z,95.10
2022-11-16T17:24:14.872Z,94.70
2022-11-16T17:27:17.825Z,95.30
2022-11-16T17:30:21.895Z,95.20
2022-11-16T17:33:24.803Z,95.10
2022-11-16T17:36:27.938Z,95.10
2022-11-16T17:39:32.151Z,95.20
2022-11-16T17:42:36.033Z,95.20
2022-11-16T17:45:38.952Z,95.10
2022-11-16T17:48:43.861Z,95.10
2022-11-16T17:51:47.103Z,95.40
2022-11-16T17:54:51.409Z,95.10
2022-11-16T17:57:54.472Z,95.10
2022-11-16T18:00:57.640Z,95.30
2022-11-16T18:04:01.384Z,95.60
2022-11-16T18:07:04.470Z,95.40
2022-11-16T18:10:11.818Z,95.40
2022-11-16T18:13:17.855Z,95.70
2022-11-16T18:16:22.418Z,95.50
2022-11-16T18:19:25.342Z,95.50
2022-11-16T18:22:28.258Z,95.30
2022-11-16T18:25:34.737Z,95.30
2022-11-16T18:28:37.996Z,95.30
2022-11-16T18:31:40.914Z,95.30
2022-11-16T18:34:44.456Z,95.30
2022-11-16T18:37:47.396Z,95.30
2022-11-16T18:41:05.488Z,95.20
2022-11-16T18:44:08.431Z,95.20
2022-11-16T18:47:11.298Z,95.10
2022-11-16T18:50:20.041Z,95.00
2022-11-16T18:53:24.311Z,95.00
2022-11-16T18:56:28.603Z,94.90
2022-11-16T18:59:31.551Z,94.80
2022-11-16T19:02:34.439Z,94.80
2022-11-16T19:05:37.383Z,94.90
2022-11-16T19:08:42.003Z,95.00
2022-11-16T19:11:46.265Z,95.00
2022-11-16T19:14:49.129Z,95.00
2022-11-16T19:18:14.568Z,95.20
2022-11-16T19:21:18.301Z,95.10
2022-11-16T19:24:21.211Z,95.10
2022-11-16T19:27:25.472Z,95.20
2022-11-16T19:30:28.345Z,95.20
2022-11-16T19:33:31.345Z,95.10
2022-11-16T19:36:36.548Z,95.00
2022-11-16T19:39:39.470Z,94.90
2022-11-16T19:42:43.838Z,94.80
2022-11-16T19:45:46.709Z,94.90
2022-11-16T19:48:50.244Z,94.90
2022-11-16T19:51:53.151Z,95.00
2022-11-16T19:54:56.457Z,94.80
2022-11-16T19:58:00.728Z,94.60
2022-11-16T20:01:04.702Z,94.40
2022-11-16T20:04:07.715Z,94.50
2022-11-16T20:07:11.854Z,94.40
2022-11-16T20:10:14.806Z,94.30
2022-11-16T20:13:19.057Z,94.10
2022-11-16T20:16:23.811Z,94.20
2022-11-16T20:19:26.721Z,94.20
2022-11-16T20:22:29.631Z,94.20
2022-11-16T20:25:32.721Z,94.20
2022-11-16T20:28:38.022Z,94.00
2022-11-16T20:31:42.735Z,94.00
2022-11-16T20:34:45.745Z,94.10
2022-11-16T20:37:48.681Z,94.00
2022-11-16T20:40:51.552Z,93.80
2022-11-16T20:43:57.352Z,93.80
2022-11-16T20:47:00.234Z,93.80
2022-11-16T20:50:03.630Z,93.70
2022-11-16T20:53:06.551Z,93.60
2022-11-16T20:56:11.418Z,93.60
2022-11-16T20:59:15.673Z,93.70
2022-11-16T21:02:18.572Z,93.40
2022-11-16T21:05:21.453Z,93.50
2022-11-16T21:08:25.843Z,93.30
2022-11-16T21:11:30.622Z,93.50
2022-11-16T21:14:33.935Z,93.50
2022-11-16T21:17:37.531Z,93.60
2022-11-16T21:20:40.400Z,93.40
2022-11-16T21:23:47.218Z,93.20
2022-11-16T21:26:50.161Z,93.20
2022-11-16T21:29:54.422Z,93.10
2022-11-16T21:32:57.311Z,93.40
2022-11-16T21:36:05.373Z,93.40
2022-11-16T21:39:08.276Z,93.50
2022-11-16T21:42:11.906Z,93.20
2022-11-16T21:45:16.312Z,93.20
2022-11-16T21:48:19.247Z,93.20
2022-11-16T21:51:24.733Z,93.20
2022-11-16T21:54:47.359Z,93.20
2022-11-16T21:57:50.264Z,93.20
2022-11-16T22:00:57.134Z,93.20
2022-11-16T22:04:17.927Z,93.30
2022-11-16T22:07:37.610Z,93.20
2022-11-16T22:10:40.900Z,93.20
2022-11-16T22:13:44.136Z,93.10
2022-11-16T22:16:48.366Z,93.10
2022-11-16T22:19:51.916Z,93.20
2022-11-16T22:22:54.808Z,93.10
2022-11-16T22:26:02.991Z,93.00
2022-11-16T22:29:06.184Z,93.10
2022-11-16T22:32:10.784Z,92.90
2022-11-16T22:35:13.671Z,92.90
2022-11-16T22:38:16.545Z,93.10
2022-11-16T22:41:20.442Z,93.10
2022-11-16T22:44:23.612Z,93.10
2022-11-16T22:47:27.870Z,93.20
2022-11-16T22:50:30.760Z,93.20
2022-11-16T22:53:34.277Z,93.20
2022-11-16T22:56:37.524Z,93.20
2022-11-16T22:59:40.396Z,93.10
2022-11-16T23:02:44.773Z,93.20
2022-11-16T23:05:47.701Z,93.20
2022-11-16T23:08:50.623Z,93.10
2022-11-16T23:12:11.500Z,93.00
2022-11-16T23:15:32.775Z,93.00
2022-11-16T23:18:37.089Z,93.10
2022-11-16T23:21:53.897Z,93.00
2022-11-16T23:25:14.471Z,93.00
2022-11-16T23:28:18.788Z,92.90
2022-11-16T23:31:21.673Z,92.90
2022-11-16T23:34:25.932Z,93.00
2022-11-16T23:37:28.847Z,92.90
2022-11-16T23:40:33.462Z,92.80
2022-11-16T23:43:53.798Z,92.80
2022-11-16T23:46:56.719Z,92.80
2022-11-16T23:50:01.288Z,92.70
2022-11-16T23:53:05.260Z,92.80
2022-11-16T23:56:08.700Z,92.90
2022-11-16T23:59:11.844Z,92.80
